Map

Track Data

SID SEASON NUMBER BASIN SUBBASIN NAME ISO_TIME NATURE LAT LON WMO_WIND WMO_PRES WMO_AGENCY TRACK_TYPE DIST2LAND LANDFALL IFLAG USA_AGENCY USA_ATCF_ID USA_LAT USA_LON USA_RECORD USA_STATUS USA_WIND USA_PRES USA_SSHS USA_R34_NE USA_R34_SE USA_R34_SW USA_R34_NW USA_R50_NE USA_R50_SE USA_R50_SW USA_R50_NW USA_R64_NE USA_R64_SE USA_R64_SW USA_R64_NW USA_POCI USA_ROCI USA_RMW USA_EYE TOKYO_LAT TOKYO_LON TOKYO_GRADE TOKYO_WIND TOKYO_PRES TOKYO_R50_DIR TOKYO_R50_LONG TOKYO_R50_SHORT TOKYO_R30_DIR TOKYO_R30_LONG TOKYO_R30_SHORT TOKYO_LAND CMA_LAT CMA_LON CMA_CAT CMA_WIND CMA_PRES HKO_LAT HKO_LON HKO_CAT HKO_WIND HKO_PRES NEWDELHI_LAT NEWDELHI_LON NEWDELHI_GRADE NEWDELHI_WIND NEWDELHI_PRES NEWDELHI_CI NEWDELHI_DP NEWDELHI_POCI REUNION_LAT REUNION_LON REUNION_TYPE REUNION_WIND REUNION_PRES REUNION_TNUM REUNION_CI REUNION_RMW REUNION_R34_NE REUNION_R34_SE REUNION_R34_SW REUNION_R34_NW REUNION_R50_NE REUNION_R50_SE REUNION_R50_SW REUNION_R50_NW REUNION_R64_NE REUNION_R64_SE REUNION_R64_SW REUNION_R64_NW BOM_LAT BOM_LON BOM_TYPE BOM_WIND BOM_PRES BOM_TNUM BOM_CI BOM_RMW BOM_R34_NE BOM_R34_SE BOM_R34_SW BOM_R34_NW BOM_R50_NE BOM_R50_SE BOM_R50_SW BOM_R50_NW BOM_R64_NE BOM_R64_SE BOM_R64_SW BOM_R64_NW BOM_ROCI BOM_POCI BOM_EYE BOM_POS_METHOD BOM_PRES_METHOD NADI_LAT NADI_LON NADI_CAT NADI_WIND NADI_PRES WELLINGTON_LAT WELLINGTON_LON WELLINGTON_WIND WELLINGTON_PRES DS824_LAT DS824_LON DS824_STAGE DS824_WIND DS824_PRES TD9636_LAT TD9636_LON TD9636_STAGE TD9636_WIND TD9636_PRES TD9635_LAT TD9635_LON TD9635_WIND TD9635_PRES TD9635_ROCI NEUMANN_LAT NEUMANN_LON NEUMANN_CLASS NEUMANN_WIND NEUMANN_PRES MLC_LAT MLC_LON MLC_CLASS MLC_WIND MLC_PRES USA_GUST BOM_GUST BOM_GUST_PER REUNION_GUST REUNION_GUST_PER USA_SEAHGT USA_SEARAD_NE USA_SEARAD_SE USA_SEARAD_SW USA_SEARAD_NW STORM_SPEED STORM_DIR
1949161S23105 1949 36 SI WA NOT_NAMED 1949-06-09 12:00:00 TS -23.4000 105.400 main 820 810 O________O____ jtwc_sh SH261949 -23.4000 105.400 -1 -23.4000 105.400 TC 3 108
1949161S23105 1949 36 SI WA NOT_NAMED 1949-06-09 15:00:00 TS -23.4425 105.540 main 810 788 P________P____ SH261949 -23.4425 105.540 -1 -23.4425 105.540 TC 3 110
1949161S23105 1949 36 SI WA NOT_NAMED 1949-06-09 18:00:00 TS -23.5000 105.700 main 788 766 O________O____ jtwc_sh SH261949 -23.5000 105.700 -1 -23.5000 105.700 TC 4 114
1949161S23105 1949 36 SI WA NOT_NAMED 1949-06-09 21:00:00 TS -23.5850 105.893 main 766 744 P________P____ SH261949 -23.5850 105.893 -1 -23.5850 105.893 TC 4 119
1949161S23105 1949 36 SI WA NOT_NAMED 1949-06-10 00:00:00 TS -23.7000 106.100 main 744 723 O________O____ jtwc_sh SH261949 -23.7000 106.100 -1 -23.7000 106.100 TC 4 124
1949161S23105 1949 36 SI WA NOT_NAMED 1949-06-10 03:00:00 TS -23.8349 106.293 main 723 700 P________P____ SH261949 -23.8349 106.293 -1 -23.8349 106.293 TC 5 129
1949161S23105 1949 36 SI WA NOT_NAMED 1949-06-10 06:00:00 TS -24.0000 106.500 main 700 678 O________O____ jtwc_sh SH261949 -24.0000 106.500 -1 -24.0000 106.500 TC 5 131
1949161S23105 1949 36 SI WA NOT_NAMED 1949-06-10 09:00:00 TS -24.1925 106.743 main 678 647 P________P____ SH261949 -24.1925 106.743 -1 -24.1925 106.743 TC 6 131
1949161S23105 1949 36 SI WA NOT_NAMED 1949-06-10 12:00:00 TS -24.4000 107.000 main 647 627 O________O____ jtwc_sh SH261949 -24.4000 107.000 -1 -24.4000 107.000 TC 6 134
1949161S23105 1949 36 SI WA NOT_NAMED 1949-06-10 15:00:00 TS -24.6224 107.235 main 627 597 P________P____ SH261949 -24.6224 107.235 -1 -24.6224 107.235 TC 6 131
1949161S23105 1949 36 SI WA NOT_NAMED 1949-06-10 18:00:00 TS -24.8000 107.500 main 597 564 O________O____ jtwc_sh SH261949 -24.8000 107.500 -1 -24.8000 107.500 TC 6 124
1949161S23105 1949 36 SI WA NOT_NAMED 1949-06-10 21:00:00 TS -24.9622 107.797 main 564 528 P________P____ SH261949 -24.9622 107.797 -1 -24.9622 107.797 TC 6 99
1949161S23105 1949 36 SI WA NOT_NAMED 1949-06-11 00:00:00 TS -24.9000 108.200 main 528 475 O________O____ jtwc_sh SH261949 -24.9000 108.200 -1 -24.9000 108.200 TC 10 61
1949161S23105 1949 36 SI WA NOT_NAMED 1949-06-11 03:00:00 TS -24.4775 108.755 main 465 411 P________P____ SH261949 -24.4775 108.755 -1 -24.4775 108.755 TC 16 45
1949161S23105 1949 36 SI WA NOT_NAMED 1949-06-11 06:00:00 TS -23.8000 109.400 main 411 357 O________O____ jtwc_sh SH261949 -23.8000 109.400 -1 -23.8000 109.400 TC 19 40
1949161S23105 1949 36 SI WA NOT_NAMED 1949-06-11 09:00:00 TS -23.0079 110.104 main 360 301 P________P____ SH261949 -23.0079 110.104 -1 -23.0079 110.104 TC 20 37
1949161S23105 1949 36 SI WA NOT_NAMED 1949-06-11 12:00:00 TS -22.2000 110.700 main 301 282 O________O____ jtwc_sh SH261949 -22.2000 110.700 -1 -22.2000 110.700 TC 17 31
1949161S23105 1949 36 SI WA NOT_NAMED 1949-06-11 15:00:00 TS -21.5622 111.047 main 290 285 P________P____ SH261949 -21.5622 111.047 -1 -21.5622 111.047 TC 13 21
1949161S23105 1949 36 SI WA NOT_NAMED 1949-06-11 18:00:00 TS -21.0000 111.200 main 305 305 O________O____ jtwc_sh SH261949 -21.0000 111.200 -1 -21.0000 111.200 TC 11 9
1949161S23105 1949 36 SI WA NOT_NAMED 1949-06-11 21:00:00 TS -20.4501 111.230 main 329 329 P________P____ SH261949 -20.4501 111.230 -1 -20.4501 111.230 TC 11 0
1949161S23105 1949 36 SI WA NOT_NAMED 1949-06-12 00:00:00 TS -19.9000 111.200 main 366 O________O____ jtwc_sh SH261949 -19.9000 111.200 -1 -19.9000 111.200 TC 11 357

About IBTrACS Database

This database is a web-friendly format of International Best Track Archive for Climate Stewardship (IBTrACS), a global best track data archive curated by NOAA dating back to 1842.

Updated: 2021-10-27